createdAt,value
2023-03-12T00:04:58.394Z,-0.86
2023-03-12T00:08:10.260Z,-0.88
2023-03-12T00:11:22.173Z,-0.90
2023-03-12T00:14:26.292Z,-0.95
2023-03-12T00:17:43.207Z,-1.00
2023-03-12T00:21:02.313Z,-1.05
2023-03-12T00:24:12.568Z,-1.08
2023-03-12T00:27:22.463Z,-1.11
2023-03-12T00:30:23.144Z,-1.12
2023-03-12T00:33:25.558Z,-1.12
2023-03-12T00:36:34.642Z,-1.13
2023-03-12T00:39:48.892Z,-1.13
2023-03-12T00:42:59.719Z,-1.12
2023-03-12T00:46:10.500Z,-1.10
2023-03-12T00:49:23.334Z,-1.09
2023-03-12T00:52:26.269Z,-1.07
2023-03-12T00:55:31.214Z,-1.07
2023-03-12T00:58:34.097Z,-1.12
2023-03-12T01:01:36.551Z,-1.16
2023-03-12T01:04:38.404Z,-1.21
2023-03-12T01:15:33.473Z,-1.43
2023-03-12T01:18:56.930Z,-1.55
2023-03-12T01:26:00.589Z,-1.74
2023-03-12T01:29:17.103Z,-1.82
2023-03-12T01:32:29.938Z,-1.86
2023-03-12T01:35:42.158Z,-1.86
2023-03-12T01:38:44.694Z,-1.84
2023-03-12T01:41:55.630Z,-1.80
2023-03-12T01:45:16.519Z,-1.75
2023-03-12T01:48:30.429Z,-1.69
2023-03-12T01:51:33.944Z,-1.67
2023-03-12T01:54:37.784Z,-1.66
2023-03-12T01:58:03.534Z,-1.67
2023-03-12T02:01:12.538Z,-1.71
2023-03-12T02:04:28.555Z,-1.75
2023-03-12T02:07:25.912Z,-1.75
2023-03-12T02:10:36.729Z,-1.76
2023-03-12T02:13:42.631Z,-1.80
2023-03-12T02:16:53.415Z,-1.88
2023-03-12T02:19:59.382Z,-1.97
2023-03-12T02:23:19.581Z,-2.07
2023-03-12T02:26:30.475Z,-2.16
2023-03-12T02:30:00.114Z,-2.25
2023-03-12T02:33:12.016Z,-2.34
2023-03-12T02:36:14.525Z,-2.41
2023-03-12T02:39:18.477Z,-2.45
2023-03-12T02:42:16.956Z,-2.47
2023-03-12T02:45:46.491Z,-2.47
2023-03-12T02:48:55.403Z,-2.45
2023-03-12T02:52:06.632Z,-2.43
2023-03-12T02:55:17.403Z,-2.42
2023-03-12T02:58:27.314Z,-2.40
2023-03-12T03:01:17.804Z,-2.38
2023-03-12T03:04:37.159Z,-2.35
2023-03-12T03:07:48.980Z,-2.35
2023-03-12T03:11:09.349Z,-2.34
2023-03-12T03:14:21.201Z,-2.36
2023-03-12T03:17:33.040Z,-2.39
2023-03-12T03:20:43.870Z,-2.39
2023-03-12T03:23:55.631Z,-2.40
2023-03-12T03:30:42.364Z,-2.39
2023-03-12T03:33:55.163Z,-2.37
2023-03-12T03:37:04.191Z,-2.37
2023-03-12T03:40:16.106Z,-2.37
2023-03-12T03:43:28.013Z,-2.36
2023-03-12T03:46:38.514Z,-2.35
2023-03-12T03:49:50.396Z,-2.33
2023-03-12T03:53:03.355Z,-2.28
2023-03-12T03:56:14.561Z,-2.22
2023-03-12T03:59:28.618Z,-2.14
2023-03-12T04:02:40.687Z,-2.07
2023-03-12T04:05:59.288Z,-2.00
2023-03-12T04:20:20.803Z,-1.60
2023-03-12T04:23:38.102Z,-1.56
2023-03-12T04:26:49.957Z,-1.53
2023-03-12T04:33:10.081Z,-1.51
2023-03-12T04:36:22.899Z,-1.53
2023-03-12T04:39:51.486Z,-1.58
2023-03-12T04:46:43.094Z,-1.77
2023-03-12T04:49:57.103Z,-1.85
2023-03-12T04:53:00.739Z,-1.93
2023-03-12T04:56:19.994Z,-2.00
2023-03-12T04:59:40.128Z,-2.09
2023-03-12T05:02:47.096Z,-2.14
2023-03-12T05:05:49.676Z,-2.19
2023-03-12T05:09:01.596Z,-2.21
2023-03-12T05:12:25.101Z,-2.21
2023-03-12T05:15:35.882Z,-2.20
2023-03-12T05:18:46.887Z,-2.18
2023-03-12T05:21:57.680Z,-2.14
2023-03-12T05:25:17.118Z,-2.09
2023-03-12T05:28:27.963Z,-2.04
2023-03-12T05:31:38.812Z,-2.00
2023-03-12T05:34:40.846Z,-1.93
2023-03-12T05:38:02.466Z,-1.82
2023-03-12T05:41:17.292Z,-1.63
2023-03-12T05:44:37.548Z,-1.44
2023-03-12T05:47:51.301Z,-1.26
2023-03-12T05:51:21.188Z,-1.07
2023-03-12T05:54:15.087Z,-0.85
2023-03-12T05:57:17.054Z,-0.69
2023-03-12T06:00:38.290Z,-0.55
2023-03-12T06:04:08.932Z,-0.36
2023-03-12T06:07:21.638Z,-0.07
2023-03-12T06:14:19.715Z,0.21
2023-03-12T06:17:36.603Z,0.26
2023-03-12T06:20:53.980Z,0.29
2023-03-12T06:24:04.795Z,0.37
2023-03-12T06:30:50.689Z,0.38
2023-03-12T06:34:01.595Z,0.50
2023-03-12T06:37:10.505Z,0.70
2023-03-12T06:40:21.377Z,0.94
2023-03-12T06:43:50.065Z,1.19
2023-03-12T06:47:10.160Z,1.47
2023-03-12T06:50:15.795Z,1.75
2023-03-12T06:53:27.696Z,1.95
2023-03-12T06:56:38.522Z,2.09
2023-03-12T06:59:51.298Z,2.12
2023-03-12T07:03:11.514Z,2.19
2023-03-12T07:06:24.289Z,2.23
2023-03-12T07:09:37.596Z,2.25
2023-03-12T07:12:56.788Z,2.27
2023-03-12T07:16:07.829Z,2.28
2023-03-12T07:19:18.655Z,2.32
2023-03-12T07:22:29.570Z,2.38
2023-03-12T07:25:40.637Z,2.49
2023-03-12T07:28:43.748Z,2.47
2023-03-12T07:31:56.203Z,2.50
2023-03-12T07:35:09.132Z,2.49
2023-03-12T07:38:19.283Z,2.49
2023-03-12T07:41:26.512Z,2.56
2023-03-12T07:44:48.940Z,2.77
2023-03-12T07:48:11.237Z,3.11
2023-03-12T07:51:24.101Z,3.40
2023-03-12T07:54:27.173Z,3.73
2023-03-12T07:57:46.868Z,3.92
2023-03-12T08:00:58.982Z,4.04
2023-03-12T08:04:09.961Z,4.15
2023-03-12T08:07:17.089Z,4.35
2023-03-12T08:10:24.175Z,4.54
2023-03-12T08:13:44.357Z,4.77
2023-03-12T08:16:58.325Z,4.84
2023-03-12T08:20:17.243Z,4.79
2023-03-12T08:23:29.201Z,4.76
2023-03-12T08:26:42.120Z,4.79
2023-03-12T08:29:53.030Z,4.82
2023-03-12T08:37:06.240Z,4.77
2023-03-12T08:40:26.355Z,4.71
2023-03-12T08:43:52.548Z,4.64
2023-03-12T08:47:03.705Z,4.62
2023-03-12T08:50:07.761Z,4.61
2023-03-12T08:53:15.947Z,4.60
2023-03-12T09:07:33.197Z,4.72
2023-03-12T09:10:40.160Z,4.70
2023-03-12T09:17:44.619Z,4.63
2023-03-12T09:20:58.921Z,4.57
2023-03-12T09:24:07.805Z,4.54
2023-03-12T09:27:28.146Z,4.52
2023-03-12T09:30:38.094Z,4.51
2023-03-12T09:33:56.233Z,4.51
2023-03-12T09:37:04.121Z,4.52
2023-03-12T09:40:24.448Z,4.54
2023-03-12T09:43:43.564Z,4.55
2023-03-12T09:46:55.764Z,4.55
2023-03-12T09:50:01.290Z,4.52
2023-03-12T09:56:55.581Z,4.50
2023-03-12T10:00:07.632Z,4.49
2023-03-12T10:03:09.175Z,4.52
2023-03-12T10:06:12.832Z,4.54
2023-03-12T10:09:21.413Z,4.55
2023-03-12T10:20:20.929Z,4.58
2023-03-12T10:27:22.614Z,4.64
2023-03-12T10:30:43.933Z,4.64
2023-03-12T10:33:59.317Z,4.70
2023-03-12T10:41:04.840Z,4.81
2023-03-12T10:44:23.136Z,4.84
2023-03-12T10:47:40.230Z,4.86
2023-03-12T10:50:46.183Z,4.90
2023-03-12T10:54:05.718Z,4.93
2023-03-12T10:57:13.934Z,4.97
2023-03-12T11:00:25.527Z,4.99
2023-03-12T11:04:01.711Z,5.02
2023-03-12T11:07:22.246Z,5.04
2023-03-12T11:14:23.019Z,5.14
2023-03-12T11:17:48.815Z,5.19
2023-03-12T11:21:02.738Z,5.24
2023-03-12T11:24:15.742Z,5.26
2023-03-12T11:31:00.939Z,5.30
2023-03-12T11:34:01.986Z,5.34
2023-03-12T11:45:03.796Z,5.57
2023-03-12T11:48:38.613Z,5.66
2023-03-12T11:59:57.445Z,5.76
2023-03-12T12:03:05.139Z,5.78
2023-03-12T12:10:00.122Z,5.74
2023-03-12T12:13:04.840Z,5.70
2023-03-12T12:16:13.503Z,5.68
2023-03-12T12:19:12.101Z,5.71
2023-03-12T12:22:11.909Z,5.73
2023-03-12T12:25:21.946Z,5.73
2023-03-12T12:28:20.619Z,5.75
2023-03-12T12:31:35.125Z,5.73
2023-03-12T12:34:29.862Z,5.74
2023-03-12T12:41:11.577Z,5.84
2023-03-12T12:47:21.919Z,5.86
2023-03-12T12:50:19.966Z,5.82
2023-03-12T12:53:39.846Z,5.78
2023-03-12T12:56:43.226Z,5.78
2023-03-12T13:00:02.443Z,5.78
2023-03-12T13:03:19.860Z,5.79
2023-03-12T13:06:42.802Z,5.77
2023-03-12T13:09:59.679Z,5.79
2023-03-12T13:17:16.501Z,5.86
2023-03-12T13:20:26.111Z,5.86
2023-03-12T13:23:20.870Z,5.86
2023-03-12T13:26:30.697Z,5.85
2023-03-12T13:29:26.673Z,5.84
2023-03-12T13:32:26.623Z,5.82
2023-03-12T13:35:42.017Z,5.82
2023-03-12T13:39:01.834Z,5.83
2023-03-12T13:42:03.836Z,5.83
2023-03-12T13:45:13.801Z,5.81
2023-03-12T13:48:33.623Z,5.75
2023-03-12T13:51:15.819Z,5.74
2023-03-12T13:54:25.105Z,5.73
2023-03-12T13:57:43.926Z,5.75
2023-03-12T14:03:50.432Z,5.78
2023-03-12T14:07:16.915Z,5.80
2023-03-12T14:11:01.754Z,5.79
2023-03-12T14:14:17.825Z,5.78
2023-03-12T14:17:35.697Z,5.77
2023-03-12T14:20:41.571Z,5.77
2023-03-12T14:23:56.935Z,5.78
2023-03-12T14:26:55.738Z,5.78
2023-03-12T14:30:17.867Z,5.76
2023-03-12T14:33:39.211Z,5.72
2023-03-12T14:36:53.654Z,5.72
2023-03-12T14:40:00.246Z,5.76
2023-03-12T14:43:35.815Z,5.79
2023-03-12T14:46:49.274Z,5.83
2023-03-12T14:50:03.518Z,5.83
2023-03-12T14:53:08.135Z,5.85
2023-03-12T14:56:27.463Z,5.85
2023-03-12T14:59:41.205Z,5.82
2023-03-12T15:02:55.516Z,5.79
2023-03-12T15:06:12.446Z,5.77
2023-03-12T15:09:31.720Z,5.78
2023-03-12T15:13:07.610Z,5.78
2023-03-12T15:16:11.979Z,5.76
2023-03-12T15:19:22.817Z,5.75
2023-03-12T15:22:41.942Z,5.76
2023-03-12T15:29:14.911Z,5.70
2023-03-12T15:32:25.888Z,5.64
2023-03-12T15:35:46.405Z,5.58
2023-03-12T15:39:00.516Z,5.51
2023-03-12T15:42:13.388Z,5.45
2023-03-12T15:45:39.104Z,5.40
2023-03-12T15:49:04.479Z,5.36
2023-03-12T15:52:16.329Z,5.30
2023-03-12T15:55:31.071Z,5.28
2023-03-12T15:58:47.838Z,5.25
2023-03-12T16:02:07.841Z,5.20
2023-03-12T16:05:29.823Z,5.15
2023-03-12T16:08:36.712Z,5.11
2023-03-12T16:11:44.394Z,5.07
2023-03-12T16:18:54.351Z,4.94
2023-03-12T16:22:37.599Z,4.85
2023-03-12T16:25:44.259Z,4.78
2023-03-12T16:28:55.749Z,4.72
2023-03-12T16:32:06.644Z,4.65
2023-03-12T16:35:26.820Z,4.58
2023-03-12T16:42:30.185Z,4.38
2023-03-12T16:49:06.718Z,4.16
2023-03-12T16:52:51.936Z,4.05
2023-03-12T16:55:32.748Z,3.94
2023-03-12T16:59:23.554Z,3.84
2023-03-12T17:02:52.281Z,3.74
2023-03-12T17:12:16.678Z,3.55
2023-03-12T17:19:44.754Z,3.43
2023-03-12T17:22:45.689Z,3.39
2023-03-12T17:29:53.420Z,3.30
2023-03-12T17:36:18.631Z,3.19
2023-03-12T17:39:38.860Z,3.16
2023-03-12T17:48:32.677Z,3.08
2023-03-12T17:51:45.682Z,3.06
2023-03-12T17:58:01.694Z,3.00
2023-03-12T18:03:50.528Z,2.97
2023-03-12T18:07:10.251Z,2.97
2023-03-12T18:10:33.344Z,2.96
2023-03-12T18:17:00.708Z,2.93
2023-03-12T18:20:11.704Z,2.91
2023-03-12T18:23:24.838Z,2.88
2023-03-12T18:26:44.099Z,2.86
2023-03-12T18:29:56.303Z,2.84
2023-03-12T18:33:23.945Z,2.82
2023-03-12T18:36:41.507Z,2.79
2023-03-12T18:39:51.669Z,2.74
2023-03-12T18:43:02.487Z,2.67
2023-03-12T18:46:15.264Z,2.61
2023-03-12T18:49:37.504Z,2.52
2023-03-12T18:52:50.313Z,2.43
2023-03-12T18:56:02.084Z,2.37
2023-03-12T18:59:21.258Z,2.30
2023-03-12T19:02:41.485Z,2.24
2023-03-12T19:06:01.762Z,2.19
2023-03-12T19:09:12.519Z,2.13
2023-03-12T19:12:24.328Z,2.09
2023-03-12T19:15:37.114Z,2.01
2023-03-12T19:18:52.059Z,1.90
2023-03-12T19:22:12.222Z,1.83
2023-03-12T19:25:24.010Z,1.80
2023-03-12T19:28:44.106Z,1.80
2023-03-12T19:31:55.118Z,1.77
2023-03-12T19:35:07.032Z,1.73
2023-03-12T19:38:19.255Z,1.73
2023-03-12T19:41:34.133Z,1.71
2023-03-12T19:44:46.493Z,1.69
2023-03-12T19:48:12.794Z,1.67
2023-03-12T19:51:18.257Z,1.62
2023-03-12T19:54:29.661Z,1.59
2023-03-12T19:57:48.795Z,1.54
2023-03-12T20:00:59.622Z,1.51
2023-03-12T20:04:18.788Z,1.49
2023-03-12T20:07:29.546Z,1.45
2023-03-12T20:10:48.820Z,1.41
2023-03-12T20:14:09.064Z,1.37
2023-03-12T20:17:20.245Z,1.33
2023-03-12T20:20:47.927Z,1.30
2023-03-12T20:23:58.745Z,1.27
2023-03-12T20:27:09.667Z,1.24
2023-03-12T20:30:37.298Z,1.23
2023-03-12T20:34:06.285Z,1.21
2023-03-12T20:37:28.208Z,1.21
2023-03-12T20:40:39.106Z,1.19
2023-03-12T20:43:51.041Z,1.16
2023-03-12T20:47:02.041Z,1.17
2023-03-12T20:50:20.333Z,1.18
2023-03-12T20:53:31.313Z,1.19
2023-03-12T20:56:43.470Z,1.23
2023-03-12T20:59:55.266Z,1.28
2023-03-12T21:03:06.611Z,1.35
2023-03-12T21:06:26.173Z,1.45
2023-03-12T21:09:37.270Z,1.55
2023-03-12T21:12:50.324Z,1.66
2023-03-12T21:16:09.752Z,1.77
2023-03-12T21:19:20.300Z,1.84
2023-03-12T21:22:33.224Z,1.90
2023-03-12T21:25:37.991Z,1.94
2023-03-12T21:28:41.135Z,1.99
2023-03-12T21:31:51.946Z,2.02
2023-03-12T21:35:14.572Z,2.04
2023-03-12T21:41:20.832Z,2.08
2023-03-12T21:44:47.404Z,2.09
2023-03-12T21:48:00.587Z,2.11
2023-03-12T21:51:04.990Z,2.12
2023-03-12T21:54:18.921Z,2.13
2023-03-12T21:57:30.877Z,2.14
2023-03-12T22:00:58.734Z,2.16
2023-03-12T22:04:09.877Z,2.18
2023-03-12T22:07:20.672Z,2.19
2023-03-12T22:10:31.659Z,2.21
2023-03-12T22:13:42.672Z,2.23
2023-03-12T22:17:02.464Z,2.25
2023-03-12T22:20:15.684Z,2.26
2023-03-12T22:23:26.631Z,2.28
2023-03-12T22:26:06.831Z,2.31
2023-03-12T22:32:03.328Z,2.34
2023-03-12T22:35:11.777Z,2.35
2023-03-12T22:38:18.546Z,2.37
2023-03-12T22:43:56.552Z,2.39
2023-03-12T22:47:08.857Z,2.40
2023-03-12T22:50:39.517Z,2.42
2023-03-12T22:53:59.228Z,2.44
2023-03-12T22:57:19.515Z,2.47
2023-03-12T23:02:58.906Z,2.52
2023-03-12T23:06:12.230Z,2.54
2023-03-12T23:09:26.295Z,2.56
2023-03-12T23:12:37.189Z,2.58
2023-03-12T23:15:46.139Z,2.59
2023-03-12T23:18:57.179Z,2.61
2023-03-12T23:21:59.679Z,2.62
2023-03-12T23:25:10.502Z,2.63
2023-03-12T23:28:30.664Z,2.65
2023-03-12T23:31:26.595Z,2.67
2023-03-12T23:34:53.637Z,2.69
2023-03-12T23:38:12.058Z,2.71
2023-03-12T23:41:31.236Z,2.74
2023-03-12T23:44:41.093Z,2.76
2023-03-12T23:47:20.487Z,2.77
2023-03-12T23:52:45.836Z,2.80
2023-03-12T23:56:24.156Z,2.82
2023-03-12T23:59:43.387Z,2.87
